createdAt,value
2022-11-15T00:04:57.522Z,17.80
2022-11-15T00:09:58.677Z,16.70
2022-11-15T00:14:59.829Z,18.60
2022-11-15T00:25:02.034Z,17.30
2022-11-15T00:35:05.191Z,20.20
2022-11-15T00:40:07.551Z,19.60
2022-11-15T00:45:09.501Z,21.40
2022-11-15T00:50:14.834Z,20.00
2022-11-15T00:55:18.824Z,20.50
2022-11-15T01:00:20.043Z,19.00
2022-11-15T01:05:22.854Z,17.30
2022-11-15T01:10:25.998Z,22.30
2022-11-15T01:15:27.212Z,21.40
2022-11-15T01:20:28.589Z,22.90
2022-11-15T01:25:29.758Z,22.00
2022-11-15T01:30:30.933Z,22.40
2022-11-15T01:35:32.148Z,20.60
2022-11-15T01:45:34.341Z,20.70
2022-11-15T01:55:37.239Z,20.00
2022-11-15T02:00:38.702Z,18.10
2022-11-15T02:05:41.373Z,11.90
2022-11-15T02:10:42.548Z,22.90
2022-11-15T02:16:02.815Z,24.90
2022-11-15T02:21:30.926Z,24.30
2022-11-15T02:26:50.680Z,18.70
2022-11-15T02:32:20.948Z,20.10
2022-11-15T02:37:25.147Z,18.70
2022-11-15T02:42:49.176Z,21.20
2022-11-15T02:47:54.275Z,21.10
2022-11-15T02:52:56.129Z,24.10
2022-11-15T02:58:37.397Z,22.00
2022-11-15T03:08:43.119Z,22.80
2022-11-15T03:18:54.049Z,23.00
2022-11-15T03:23:58.789Z,26.60
2022-11-15T03:29:22.586Z,22.40
2022-11-15T03:34:47.555Z,24.90
2022-11-15T03:39:49.075Z,25.90
2022-11-15T03:45:02.718Z,19.50
2022-11-15T03:50:11.138Z,23.60
2022-11-15T03:55:16.946Z,26.40
2022-11-15T04:00:18.259Z,25.40
2022-11-15T04:05:19.735Z,24.10
2022-11-15T04:10:20.996Z,23.40
2022-11-15T04:15:24.045Z,19.10
2022-11-15T04:20:47.953Z,21.60
2022-11-15T04:25:52.188Z,23.60
2022-11-15T04:30:53.581Z,19.20
2022-11-15T04:36:13.239Z,20.80
2022-11-15T04:41:14.404Z,21.20
2022-11-15T04:46:15.503Z,21.60
2022-11-15T04:56:17.738Z,20.90
2022-11-15T05:06:20.122Z,10.80
2022-11-15T05:16:23.333Z,18.80
2022-11-15T05:26:25.760Z,19.20
2022-11-15T05:31:27.491Z,15.20
2022-11-15T05:36:35.016Z,13.30
2022-11-15T05:41:44.385Z,19.50
2022-11-15T05:46:47.149Z,18.10
2022-11-15T05:51:48.737Z,15.90
2022-11-15T05:56:51.031Z,18.30
2022-11-15T06:01:52.269Z,19.10
2022-11-15T06:06:53.470Z,16.50
2022-11-15T06:11:54.684Z,15.10
2022-11-15T06:16:55.797Z,16.50
2022-11-15T06:26:58.051Z,16.90
2022-11-15T06:32:00.169Z,17.20
2022-11-15T06:37:02.417Z,17.80
2022-11-15T06:42:03.665Z,16.10
2022-11-15T06:47:04.707Z,14.30
2022-11-15T06:57:07.625Z,15.80
2022-11-15T07:02:14.032Z,16.80
2022-11-15T07:07:15.478Z,19.10
2022-11-15T07:12:16.582Z,17.20
2022-11-15T07:22:18.786Z,12.80
2022-11-15T07:32:21.115Z,13.80
2022-11-15T07:37:22.679Z,13.20
2022-11-15T07:42:41.738Z,13.10
2022-11-15T07:47:46.403Z,12.10
2022-11-15T07:52:47.526Z,17.30
2022-11-15T07:57:48.670Z,16.40
2022-11-15T08:07:54.921Z,16.20
2022-11-15T08:13:15.159Z,12.20
2022-11-15T08:18:17.198Z,15.40
2022-11-15T08:23:18.382Z,13.70
2022-11-15T08:28:19.515Z,14.80
2022-11-15T08:38:21.741Z,16.00
2022-11-15T08:43:23.049Z,15.60
2022-11-15T08:53:25.824Z,17.50
2022-11-15T08:58:27.425Z,18.30
2022-11-15T09:03:28.629Z,18.60
2022-11-15T09:08:48.185Z,18.70
2022-11-15T09:13:50.050Z,18.50
2022-11-15T09:18:51.281Z,16.40
2022-11-15T09:23:53.220Z,15.90
2022-11-15T09:28:54.360Z,16.80
2022-11-15T09:38:58.521Z,18.40
2022-11-15T09:44:37.739Z,18.80
2022-11-15T09:49:38.975Z,20.10
2022-11-15T09:54:53.202Z,18.50
2022-11-15T10:00:38.701Z,17.70
2022-11-15T10:05:32.219Z,17.70
2022-11-15T10:10:40.784Z,15.70
2022-11-15T10:15:45.813Z,16.50
2022-11-15T10:20:51.154Z,16.60
2022-11-15T10:25:55.261Z,15.60
2022-11-15T10:30:59.406Z,16.40
2022-11-15T10:36:21.082Z,16.70
2022-11-15T10:41:28.252Z,17.20
2022-11-15T10:46:46.011Z,16.80
2022-11-15T10:51:49.862Z,17.10
2022-11-15T10:56:54.041Z,16.00
2022-11-15T11:01:55.853Z,16.40
2022-11-15T11:06:59.995Z,16.80
2022-11-15T11:12:03.003Z,17.50
2022-11-15T11:17:31.023Z,18.10
2022-11-15T11:22:48.371Z,17.00
2022-11-15T11:28:11.279Z,17.40
2022-11-15T11:33:16.800Z,14.70
2022-11-15T11:38:49.989Z,15.80
2022-11-15T11:44:18.113Z,17.10
2022-11-15T11:49:27.152Z,17.00
2022-11-15T11:54:50.224Z,17.90
2022-11-15T12:00:31.361Z,19.00
2022-11-15T12:05:37.906Z,16.40
2022-11-15T12:10:40.471Z,15.80
2022-11-15T12:15:51.497Z,14.00
2022-11-15T12:26:17.549Z,14.40
2022-11-15T12:31:41.364Z,14.40
2022-11-15T12:36:46.520Z,13.30
2022-11-15T12:42:06.292Z,12.60
2022-11-15T12:47:07.403Z,14.30
2022-11-15T12:57:16.797Z,13.10
2022-11-15T13:02:26.804Z,12.20
2022-11-15T13:07:46.669Z,11.10
2022-11-15T13:12:47.810Z,11.40
2022-11-15T13:17:51.577Z,10.40
2022-11-15T13:23:13.080Z,11.70
2022-11-15T13:28:14.404Z,11.20
2022-11-15T13:33:37.043Z,11.10
2022-11-15T13:38:40.056Z,11.90
2022-11-15T13:43:41.187Z,11.70
2022-11-15T13:53:49.048Z,13.70
2022-11-15T13:58:50.305Z,10.90
2022-11-15T14:04:01.569Z,9.80
2022-11-15T14:09:14.968Z,13.40
2022-11-15T14:14:16.211Z,14.00
2022-11-15T14:19:20.165Z,12.00
2022-11-15T14:24:22.028Z,13.10
2022-11-15T14:29:25.551Z,11.20
2022-11-15T14:34:27.806Z,11.50
2022-11-15T14:39:29.149Z,10.70
2022-11-15T14:44:30.355Z,11.10
2022-11-15T14:54:32.457Z,10.60
2022-11-15T15:04:34.701Z,11.80
2022-11-15T15:09:36.147Z,12.20
2022-11-15T15:19:39.695Z,11.40
2022-11-15T15:24:41.839Z,13.40
2022-11-15T15:29:43.394Z,12.60
2022-11-15T15:34:44.763Z,12.60
2022-11-15T15:44:50.013Z,13.20
2022-11-15T15:49:51.753Z,13.70
2022-11-15T15:54:52.940Z,11.50
2022-11-15T15:59:54.057Z,13.90
2022-11-15T16:04:55.233Z,13.00
2022-11-15T16:15:04.460Z,12.90
2022-11-15T16:20:05.825Z,13.60
2022-11-15T16:25:07.686Z,11.40
2022-11-15T16:30:14.850Z,14.50
2022-11-15T16:35:17.042Z,13.10
2022-11-15T16:40:23.664Z,11.70
2022-11-15T16:45:25.108Z,12.60
2022-11-15T16:50:34.584Z,13.60
2022-11-15T16:55:35.747Z,13.50
2022-11-15T17:05:38.332Z,12.10
2022-11-15T17:10:43.525Z,12.20
2022-11-15T17:15:45.307Z,12.00
2022-11-15T17:20:46.416Z,11.90
2022-11-15T17:30:48.534Z,12.20
2022-11-15T17:41:08.622Z,16.80
2022-11-15T17:46:16.788Z,14.40
2022-11-15T17:51:18.811Z,13.50
2022-11-15T17:56:22.308Z,14.20
2022-11-15T18:01:26.592Z,13.70
2022-11-15T18:06:30.441Z,13.40
2022-11-15T18:11:40.650Z,14.90
2022-11-15T18:16:42.300Z,16.00
2022-11-15T18:22:02.881Z,15.20
2022-11-15T18:27:05.510Z,16.60
2022-11-15T18:32:11.905Z,15.50
2022-11-15T18:37:14.624Z,15.40
2022-11-15T18:42:15.809Z,14.60
2022-11-15T18:52:17.997Z,17.30
2022-11-15T18:57:19.143Z,15.80
2022-11-15T19:07:21.644Z,17.10
2022-11-15T19:12:22.926Z,17.40
2022-11-15T19:17:24.070Z,15.60
2022-11-15T19:27:26.325Z,16.80
2022-11-15T19:32:27.480Z,15.60
2022-11-15T19:37:28.678Z,16.00
2022-11-15T19:47:31.113Z,14.80
2022-11-15T20:02:34.549Z,15.80
2022-11-15T20:07:35.728Z,15.90
2022-11-15T20:12:38.320Z,17.80
2022-11-15T20:17:39.454Z,17.40
2022-11-15T20:32:42.818Z,15.10
2022-11-15T20:37:44.762Z,15.50
2022-11-15T20:42:46.178Z,16.40
2022-11-15T20:47:47.273Z,15.80
2022-11-15T20:57:50.179Z,16.70
2022-11-15T21:02:52.561Z,16.50
2022-11-15T21:07:53.855Z,19.00
2022-11-15T21:12:54.973Z,15.60
2022-11-15T21:17:56.123Z,16.40
2022-11-15T21:27:58.437Z,17.20
2022-11-15T21:32:59.548Z,16.50
2022-11-15T21:38:00.691Z,15.70
2022-11-15T21:48:03.500Z,14.90
2022-11-15T21:53:04.985Z,15.30
2022-11-15T22:08:08.508Z,14.50
2022-11-15T22:13:09.734Z,13.30
2022-11-15T22:18:12.150Z,13.70
2022-11-15T22:23:13.357Z,16.30
2022-11-15T22:28:15.301Z,16.60
2022-11-15T22:33:18.344Z,14.50
2022-11-15T22:38:19.609Z,12.90
2022-11-15T22:43:23.674Z,12.90
2022-11-15T22:48:37.301Z,13.70
2022-11-15T22:53:38.990Z,13.00
2022-11-15T22:58:40.284Z,14.00
2022-11-15T23:03:41.562Z,13.30
2022-11-15T23:08:42.966Z,14.80
2022-11-15T23:13:44.270Z,14.30
2022-11-15T23:18:45.504Z,14.40
2022-11-15T23:23:47.072Z,13.60
2022-11-15T23:34:08.117Z,12.40
2022-11-15T23:39:10.597Z,14.80
2022-11-15T23:44:11.830Z,14.00
2022-11-15T23:49:13.111Z,13.90
2022-11-15T23:54:15.246Z,12.30
2022-11-15T23:59:16.589Z,13.80
